Time;durP1;ratioP1;P1;durP2;ratioP2;P2;SDS_P1;SDS_P2;PMS_P1;PMS_P2;Temp;Humidity;BMP_temperature;BMP_pressure;BME280_temperature;BME280_humidity;BME280_pressure;Samples;Min_cycle;Max_cycle;Signal;HPM_P1;HPM_P2
2022/07/31 00:00:59;;;;;;;4.53;4.13;;;22.70;94.50;;;;;;5060236;28;20222;-77
2022/07/31 00:03:26;;;;;;;5.47;4.93;;;22.60;94.60;;;;;;5058127;28;20190;-77
2022/07/31 00:05:53;;;;;;;5.90;4.28;;;22.60;94.50;;;;;;5070521;28;20205;-77
2022/07/31 00:08:21;;;;;;;7.32;4.88;;;22.70;94.60;;;;;;5069795;28;20205;-77
2022/07/31 00:10:48;;;;;;;8.25;5.43;;;22.60;94.90;;;;;;5068491;28;20217;-77
2022/07/31 00:13:16;;;;;;;5.28;4.78;;;22.50;94.80;;;;;;5070768;28;20198;-77
2022/07/31 00:15:43;;;;;;;6.53;4.82;;;22.60;94.90;;;;;;5070623;28;20197;-77
2022/07/31 00:18:12;;;;;;;5.45;5.00;;;22.50;94.70;;;;;;5070621;28;20216;-77
2022/07/31 00:20:40;;;;;;;7.40;5.10;;;22.50;95.20;;;;;;5052440;28;20226;-77
2022/07/31 00:23:07;;;;;;;6.05;4.75;;;22.40;95.20;;;;;;5061649;28;20574;-77
2022/07/31 00:25:35;;;;;;;5.80;4.38;;;22.50;95.30;;;;;;5071243;28;20269;-77
2022/07/31 00:28:02;;;;;;;5.50;4.20;;;22.40;95.40;;;;;;5060667;28;20197;-77
2022/07/31 00:30:30;;;;;;;4.70;4.20;;;22.50;95.90;;;;;;5051330;28;20222;-77
2022/07/31 00:32:57;;;;;;;5.57;4.22;;;22.30;95.70;;;;;;5070224;28;20190;-77
2022/07/31 00:35:46;;;;;;;6.53;3.92;;;22.30;96.20;;;;;;5052199;28;20198;-77
2022/07/31 00:38:14;;;;;;;6.97;3.80;;;22.30;96.10;;;;;;5068955;28;20202;-77
2022/07/31 00:40:46;;;;;;;4.00;3.60;;;22.30;95.90;;;;;;5086370;28;20225;-77
2022/07/31 00:43:14;;;;;;;4.70;3.38;;;22.30;96.00;;;;;;5068844;28;20193;-77
2022/07/31 00:45:43;;;;;;;3.80;3.40;;;22.30;95.90;;;;;;5066842;28;20197;-77
2022/07/31 00:48:10;;;;;;;5.45;3.70;;;22.30;95.80;;;;;;5068394;28;20653;-77
2022/07/31 00:50:38;;;;;;;6.03;4.00;;;22.20;96.20;;;;;;5074046;28;20232;-77
2022/07/31 00:53:07;;;;;;;3.92;3.55;;;22.00;96.40;;;;;;5074413;28;20194;-77
2022/07/31 00:55:34;;;;;;;4.15;3.38;;;21.90;96.70;;;;;;5070874;28;20205;-77
2022/07/31 00:58:02;;;;;;;5.13;3.28;;;22.00;97.30;;;;;;5071239;28;20202;-77
2022/07/31 01:00:29;;;;;;;3.85;3.47;;;22.00;97.10;;;;;;5060446;28;20226;-77
2022/07/31 01:02:57;;;;;;;4.30;3.25;;;22.00;97.10;;;;;;5062563;28;20229;-77
2022/07/31 01:05:25;;;;;;;5.32;3.45;;;21.90;97.30;;;;;;5065338;28;20208;-77
2022/07/31 01:07:52;;;;;;;5.13;3.38;;;22.00;97.10;;;;;;5072819;28;20582;-77
2022/07/31 01:10:37;;;;;;;3.25;2.95;;;22.00;97.10;;;;;;5074315;28;20567;-77
2022/07/31 01:13:11;;;;;;;3.47;2.78;;;22.10;97.00;;;;;;5060082;28;20212;-77
2022/07/31 01:15:40;;;;;;;2.92;2.63;;;22.20;96.80;;;;;;5071483;28;20193;-77
2022/07/31 01:18:09;;;;;;;4.68;3.00;;;22.20;96.70;;;;;;5068695;28;20201;-77
2022/07/31 01:20:38;;;;;;;3.55;2.63;;;22.10;96.70;;;;;;5064543;28;20575;-77
2022/07/31 01:23:21;;;;;;;3.58;2.90;;;22.30;96.40;;;;;;5063694;28;20214;-77
2022/07/31 01:26:34;;;;;;;3.28;2.47;;;22.30;96.10;;;;;;5074224;28;20190;-77
2022/07/31 01:29:14;;;;;;;4.10;2.70;;;22.40;95.80;;;;;;5073109;28;20188;-77
2022/07/31 01:31:45;;;;;;;3.50;3.10;;;22.30;96.20;;;;;;5071903;28;20218;-77
2022/07/31 01:34:23;;;;;;;6.50;2.88;;;22.40;95.90;;;;;;5066437;28;20198;-77
2022/07/31 01:36:58;;;;;;;9.57;3.13;;;22.30;95.90;;;;;;5071392;28;20198;-77
2022/07/31 01:39:28;;;;;;;3.33;2.72;;;22.30;95.70;;;;;;5064401;28;20186;-77
2022/07/31 01:41:57;;;;;;;4.57;2.70;;;22.30;95.70;;;;;;5070352;28;20218;-77
2022/07/31 01:44:28;;;;;;;4.18;2.97;;;22.30;95.90;;;;;;5062881;28;20197;-77
2022/07/31 01:46:57;;;;;;;3.72;2.90;;;22.20;96.00;;;;;;5060898;28;20559;-77
2022/07/31 01:49:27;;;;;;;3.17;2.88;;;22.10;96.20;;;;;;5066161;28;20194;-77
2022/07/31 01:51:55;;;;;;;4.13;3.20;;;22.20;96.00;;;;;;5070532;28;20210;-77
2022/07/31 01:54:23;;;;;;;3.05;2.60;;;22.30;96.00;;;;;;5065332;28;20201;-77
2022/07/31 01:56:53;;;;;;;4.10;2.90;;;22.30;95.80;;;;;;5069107;28;20194;-77
2022/07/31 01:59:22;;;;;;;4.93;3.28;;;22.20;95.90;;;;;;5085850;28;20203;-77
2022/07/31 02:02:12;;;;;;;4.05;3.35;;;22.00;96.40;;;;;;5064199;28;20217;-77
2022/07/31 02:04:40;;;;;;;4.32;2.88;;;21.80;97.20;;;;;;5086280;28;20213;-77
2022/07/31 02:07:08;;;;;;;5.65;3.40;;;21.80;97.20;;;;;;5067222;28;20205;-77
2022/07/31 02:09:38;;;;;;;2.97;2.78;;;21.60;97.50;;;;;;5070454;28;20193;-77
2022/07/31 02:12:07;;;;;;;3.10;2.90;;;21.60;97.40;;;;;;5069530;28;20720;-77
2022/07/31 02:14:39;;;;;;;3.60;2.90;;;21.50;98.00;;;;;;5073137;28;20194;-77
2022/07/31 02:17:08;;;;;;;4.70;3.00;;;21.40;98.10;;;;;;5065744;28;20206;-77
2022/07/31 02:20:09;;;;;;;3.17;2.95;;;21.60;98.70;;;;;;5055188;28;20704;-77
2022/07/31 02:22:37;;;;;;;4.28;3.20;;;21.60;98.70;;;;;;5068621;28;20205;-77
2022/07/31 02:25:06;;;;;;;3.50;3.20;;;21.30;99.60;;;;;;5069917;28;20205;-77
2022/07/31 02:27:36;;;;;;;2.95;2.63;;;21.10;99.90;;;;;;5064229;28;20205;-77
2022/07/31 02:30:05;;;;;;;5.90;2.95;;;21.10;99.90;;;;;;5065796;28;20190;-77
2022/07/31 02:32:34;;;;;;;3.80;3.15;;;21.00;99.90;;;;;;5071119;28;20201;-77
2022/07/31 02:35:03;;;;;;;4.28;3.00;;;20.90;99.90;;;;;;5060265;28;20341;-77
2022/07/31 02:37:34;;;;;;;4.20;2.83;;;20.80;99.90;;;;;;5059407;28;20194;-77
2022/07/31 02:40:03;;;;;;;4.38;3.00;;;20.80;99.90;;;;;;5070399;28;20197;-78
2022/07/31 02:42:32;;;;;;;3.60;2.90;;;20.80;99.90;;;;;;5066857;28;20210;-77
2022/07/31 02:45:01;;;;;;;3.08;2.70;;;20.90;99.90;;;;;;5062187;28;20194;-77
2022/07/31 02:47:29;;;;;;;3.13;2.80;;;21.00;99.90;;;;;;5064246;28;20593;-77
2022/07/31 02:49:59;;;;;;;3.17;2.75;;;21.00;99.90;;;;;;5062814;28;20569;-77
2022/07/31 02:52:30;;;;;;;4.43;2.88;;;20.90;99.90;;;;;;5071817;28;20201;-77
2022/07/31 02:54:59;;;;;;;5.03;3.13;;;20.90;99.90;;;;;;5054613;28;20679;-77
2022/07/31 02:57:26;;;;;;;3.88;3.13;;;20.80;99.90;;;;;;5063628;28;20264;-77
2022/07/31 02:59:54;;;;;;;3.40;2.80;;;20.80;99.90;;;;;;5070951;28;20194;-77
2022/07/31 03:02:23;;;;;;;3.25;2.80;;;20.80;99.90;;;;;;5063093;28;20217;-77
2022/07/31 03:04:51;;;;;;;4.18;3.00;;;20.80;99.90;;;;;;5069666;28;20202;-77
2022/07/31 03:07:18;;;;;;;3.28;2.92;;;20.70;99.90;;;;;;5052622;28;20202;-77
2022/07/31 03:09:48;;;;;;;4.82;2.95;;;20.60;99.90;;;;;;5060873;28;20581;-76
2022/07/31 03:12:48;;;;;;;4.53;2.85;;;20.60;99.90;;;;;;5061045;28;20189;-77
2022/07/31 03:15:18;;;;;;;3.03;2.75;;;20.80;99.90;;;;;;5059719;28;20593;-77
2022/07/31 03:17:47;;;;;;;2.80;2.60;;;20.70;99.90;;;;;;5074114;28;20646;-77
2022/07/31 03:20:20;;;;;;;3.95;3.05;;;20.70;99.90;;;;;;5066695;28;20241;-77
2022/07/31 03:22:48;;;;;;;2.92;2.70;;;20.70;99.90;;;;;;5067196;28;20580;-77
2022/07/31 03:25:17;;;;;;;2.80;2.53;;;20.70;99.90;;;;;;5070026;28;20206;-77
2022/07/31 03:27:47;;;;;;;2.60;2.40;;;20.70;99.90;;;;;;5071722;28;20193;-77
2022/07/31 03:30:23;;;;;;;2.90;2.70;;;20.70;99.90;;;;;;5063260;28;20233;-77
2022/07/31 03:32:51;;;;;;;3.33;3.00;;;20.90;99.90;;;;;;5052265;28;20217;-77
2022/07/31 03:35:19;;;;;;;3.58;2.83;;;20.90;99.90;;;;;;5068786;28;20205;-77
2022/07/31 03:37:47;;;;;;;4.03;3.20;;;20.90;99.90;;;;;;5068898;28;20201;-77
2022/07/31 03:40:15;;;;;;;3.88;2.72;;;20.90;99.90;;;;;;5063942;28;20245;-77
2022/07/31 03:42:45;;;;;;;4.30;2.75;;;21.00;99.90;;;;;;5065383;28;20218;-77
2022/07/31 03:45:13;;;;;;;2.63;2.42;;;21.20;99.90;;;;;;5055730;28;20194;-77
2022/07/31 03:47:41;;;;;;;4.13;2.53;;;21.10;99.80;;;;;;5051230;28;20210;-77
2022/07/31 03:50:11;;;;;;;3.90;2.60;;;21.10;99.90;;;;;;5068536;28;20229;-77
2022/07/31 03:52:39;;;;;;;3.03;2.72;;;21.20;99.90;;;;;;5064033;28;20204;-77
2022/07/31 03:55:08;;;;;;;3.20;2.92;;;21.10;99.50;;;;;;5071873;28;20706;-77
2022/07/31 03:57:37;;;;;;;3.08;2.60;;;21.00;99.00;;;;;;5064151;28;20197;-77
2022/07/31 04:00:10;;;;;;;3.65;2.80;;;21.00;99.10;;;;;;5066965;28;20193;-77
2022/07/31 04:02:44;;;;;;;3.33;2.90;;;20.80;99.60;;;;;;5079636;28;20190;-78
2022/07/31 04:05:30;;;;;;;3.13;2.50;;;20.90;99.50;;;;;;5072351;28;20542;-78
2022/07/31 04:07:58;;;;;;;3.20;2.67;;;20.80;99.50;;;;;;5076808;28;20197;-78
2022/07/31 04:10:26;;;;;;;2.63;2.40;;;20.80;99.90;;;;;;5080576;28;20221;-78
2022/07/31 04:12:53;;;;;;;3.10;2.70;;;20.70;99.90;;;;;;5060571;28;20668;-77
2022/07/31 04:15:23;;;;;;;4.47;3.13;;;20.80;99.70;;;;;;5075152;28;20673;-77
2022/07/31 04:17:51;;;;;;;3.38;2.40;;;20.80;99.80;;;;;;5068961;28;20216;-77
2022/07/31 04:20:23;;;;;;;3.20;2.90;;;20.70;99.90;;;;;;5067492;28;20232;-77
2022/07/31 04:22:51;;;;;;;3.15;2.85;;;20.70;99.90;;;;;;5074347;28;20205;-77
2022/07/31 04:25:37;;;;;;;3.08;2.67;;;20.70;99.90;;;;;;5073617;28;20687;-77
2022/07/31 04:28:14;;;;;;;2.42;2.22;;;20.60;99.90;;;;;;5075131;28;20201;-77
2022/07/31 04:30:43;;;;;;;4.00;2.70;;;21.00;99.90;;;;;;5066387;28;20232;-77
2022/07/31 04:33:11;;;;;;;3.67;3.10;;;21.10;99.80;;;;;;5067003;28;20195;-77
2022/07/31 04:35:39;;;;;;;3.28;2.80;;;21.00;99.90;;;;;;5075323;28;20672;-77
2022/07/31 04:38:07;;;;;;;3.40;2.97;;;21.20;99.50;;;;;;5071428;28;20206;-77
2022/07/31 04:40:37;;;;;;;3.60;3.30;;;21.40;98.90;;;;;;5066220;28;20213;-77
2022/07/31 04:43:04;;;;;;;3.30;2.35;;;21.30;99.00;;;;;;5071956;28;20198;-77
2022/07/31 04:45:32;;;;;;;3.78;2.75;;;21.40;98.30;;;;;;5072942;28;20193;-77
2022/07/31 04:48:01;;;;;;;2.55;2.35;;;21.30;98.30;;;;;;5072618;28;20832;-77
2022/07/31 04:50:29;;;;;;;4.25;2.58;;;21.10;98.40;;;;;;5059392;28;20213;-77
2022/07/31 04:52:59;;;;;;;3.75;2.40;;;21.10;98.40;;;;;;5070172;28;20196;-78
2022/07/31 04:55:31;;;;;;;2.72;2.53;;;21.10;98.60;;;;;;5064631;28;20197;-78
2022/07/31 04:57:59;;;;;;;3.75;2.97;;;21.30;98.30;;;;;;5069022;28;20214;-77
2022/07/31 05:00:26;;;;;;;3.35;2.70;;;21.10;98.20;;;;;;5051671;28;20245;-77
2022/07/31 05:02:54;;;;;;;2.85;2.60;;;21.30;98.10;;;;;;5062627;28;20217;-77
2022/07/31 05:05:24;;;;;;;3.15;2.53;;;21.40;97.70;;;;;;5057009;28;20209;-77
2022/07/31 05:07:52;;;;;;;3.08;2.80;;;21.20;98.00;;;;;;5067434;28;20224;-77
2022/07/31 05:13:07;;;;;;;4.07;3.00;;;21.20;98.20;;;;;;5066058;28;20205;-77
2022/07/31 05:15:38;;;;;;;3.88;2.55;;;21.30;98.10;;;;;;5069717;28;20212;-77
2022/07/31 05:18:06;;;;;;;2.88;2.67;;;21.30;98.30;;;;;;5070652;28;20209;-77
2022/07/31 05:20:53;;;;;;;3.42;2.72;;;21.50;98.00;;;;;;5065917;28;20717;-77
2022/07/31 05:23:28;;;;;;;3.50;2.70;;;21.40;98.10;;;;;;5064083;28;20221;-77
2022/07/31 05:26:17;;;;;;;4.10;2.72;;;21.50;98.20;;;;;;5063589;28;20206;-77
2022/07/31 05:28:45;;;;;;;4.47;2.97;;;21.50;97.80;;;;;;5064844;28;20204;-77
2022/07/31 05:31:14;;;;;;;3.17;2.53;;;21.70;97.70;;;;;;5060268;28;20229;-77
2022/07/31 05:33:42;;;;;;;3.05;2.72;;;21.50;98.10;;;;;;5066709;28;20220;-77
2022/07/31 05:36:11;;;;;;;3.47;3.15;;;21.60;98.00;;;;;;5063401;28;20205;-77
2022/07/31 05:38:38;;;;;;;3.40;2.78;;;21.60;98.00;;;;;;5067983;28;20204;-77
2022/07/31 05:41:24;;;;;;;5.60;3.00;;;21.50;98.50;;;;;;5066978;28;20217;-77
2022/07/31 05:44:01;;;;;;;4.45;3.13;;;21.50;98.90;;;;;;5070341;28;20257;-77
2022/07/31 05:46:38;;;;;;;3.83;2.95;;;21.40;99.10;;;;;;5062402;28;20529;-77
2022/07/31 05:49:06;;;;;;;4.32;3.40;;;21.30;99.50;;;;;;5060225;28;20209;-77
2022/07/31 05:51:35;;;;;;;5.07;3.85;;;21.30;99.90;;;;;;5056479;28;20226;-77
2022/07/31 05:54:02;;;;;;;3.35;3.03;;;21.40;99.70;;;;;;5067141;28;20200;-77
2022/07/31 05:56:48;;;;;;;3.97;3.50;;;21.50;99.60;;;;;;5064816;28;20676;-77
2022/07/31 05:59:20;;;;;;;5.60;3.55;;;21.40;99.90;;;;;;5067050;28;20201;-77
2022/07/31 06:01:47;;;;;;;5.43;3.47;;;21.30;99.90;;;;;;5064154;28;20217;-77
2022/07/31 06:04:15;;;;;;;4.50;4.10;;;21.30;99.90;;;;;;5062807;28;20233;-77
2022/07/31 06:06:47;;;;;;;5.55;4.10;;;21.20;99.90;;;;;;5061594;28;20203;-78
2022/07/31 06:09:15;;;;;;;5.80;4.22;;;21.20;99.90;;;;;;5077380;28;20603;-78
2022/07/31 06:11:45;;;;;;;7.13;5.25;;;21.20;99.90;;;;;;5063839;28;20230;-76
2022/07/31 06:14:13;;;;;;;5.68;5.18;;;21.00;99.90;;;;;;5062361;28;20194;-79
2022/07/31 06:16:59;;;;;;;7.22;4.95;;;21.00;99.90;;;;;;5075029;28;20193;-79
2022/07/31 06:19:27;;;;;;;5.22;4.72;;;21.00;99.90;;;;;;5073271;28;20197;-79
2022/07/31 06:21:56;;;;;;;10.07;5.30;;;21.10;99.90;;;;;;5074272;28;20225;-79
2022/07/31 06:24:24;;;;;;;5.97;5.28;;;21.00;99.90;;;;;;5064712;28;20214;-79
2022/07/31 06:26:52;;;;;;;5.95;4.57;;;21.10;99.90;;;;;;5062924;28;20202;-79
2022/07/31 06:29:19;;;;;;;7.40;4.82;;;21.10;99.90;;;;;;5065176;28;20558;-79
2022/07/31 06:31:47;;;;;;;8.68;5.20;;;21.10;99.90;;;;;;5061882;28;20228;-79
2022/07/31 06:34:15;;;;;;;7.00;5.20;;;21.20;99.90;;;;;;5060186;28;20203;-79
2022/07/31 06:36:44;;;;;;;6.18;5.63;;;21.30;99.90;;;;;;5059408;28;20212;-78
2022/07/31 06:39:16;;;;;;;7.38;5.28;;;21.00;99.90;;;;;;5065516;28;20217;-79
2022/07/31 06:42:18;;;;;;;8.60;5.50;;;21.10;99.90;;;;;;5063637;28;20203;-78
2022/07/31 06:45:05;;;;;;;6.68;5.88;;;21.30;99.90;;;;;;5071811;28;20213;-79
2022/07/31 06:47:51;;;;;;;7.50;6.00;;;21.30;99.90;;;;;;5071946;28;20200;-78
2022/07/31 06:50:29;;;;;;;7.28;6.55;;;21.10;99.90;;;;;;5067189;28;20217;-78
2022/07/31 06:53:15;;;;;;;10.63;6.25;;;21.20;99.90;;;;;;5071518;28;20202;-76
2022/07/31 06:55:44;;;;;;;8.45;6.22;;;21.20;99.90;;;;;;5066224;28;20221;-76
2022/07/31 06:58:12;;;;;;;5.90;5.30;;;21.20;99.90;;;;;;5060851;28;20197;-77
2022/07/31 07:00:39;;;;;;;8.73;5.70;;;21.30;99.90;;;;;;5056560;28;20222;-77
2022/07/31 07:03:07;;;;;;;7.47;5.75;;;21.30;99.90;;;;;;5054343;28;20205;-77
2022/07/31 07:05:35;;;;;;;5.55;5.05;;;21.30;99.90;;;;;;5062673;28;20214;-77
2022/07/31 07:08:04;;;;;;;8.75;5.72;;;21.30;99.90;;;;;;5066009;28;20579;-77
2022/07/31 07:10:33;;;;;;;5.93;5.35;;;21.20;99.90;;;;;;5060556;28;20214;-77
2022/07/31 07:13:02;;;;;;;6.90;6.20;;;21.30;99.90;;;;;;5048500;28;20202;-76
2022/07/31 07:15:36;;;;;;;9.25;6.00;;;21.10;99.90;;;;;;5057764;28;20584;-76
2022/07/31 07:18:04;;;;;;;8.43;7.20;;;21.20;99.90;;;;;;5060099;28;20549;-76
2022/07/31 07:20:39;;;;;;;7.78;6.50;;;21.30;99.90;;;;;;5049704;28;20600;-76
2022/07/31 07:23:06;;;;;;;6.90;6.07;;;21.20;99.90;;;;;;5056286;28;20210;-76
2022/07/31 07:25:52;;;;;;;9.93;7.45;;;21.20;99.90;;;;;;5060301;28;20621;-76
2022/07/31 07:28:20;;;;;;;10.15;7.18;;;21.20;99.90;;;;;;5053732;28;20209;-76
2022/07/31 07:30:48;;;;;;;8.88;6.53;;;21.10;99.90;;;;;;5054859;28;20226;-76
2022/07/31 07:33:16;;;;;;;10.30;7.75;;;21.20;99.90;;;;;;5059949;28;20205;-76
2022/07/31 07:35:43;;;;;;;7.78;6.60;;;21.30;99.90;;;;;;5061088;28;20201;-76
2022/07/31 07:38:16;;;;;;;7.35;6.65;;;21.30;99.90;;;;;;5054812;28;20212;-76
2022/07/31 07:40:44;;;;;;;7.90;6.43;;;21.30;99.90;;;;;;5053178;28;20218;-77
2022/07/31 07:43:12;;;;;;;6.72;5.63;;;21.30;99.90;;;;;;5066302;28;20202;-77
2022/07/31 07:45:41;;;;;;;6.22;5.63;;;21.40;99.90;;;;;;5049917;28;20224;-77
2022/07/31 07:48:09;;;;;;;7.25;5.63;;;21.60;99.90;;;;;;5051943;28;20209;-77
2022/07/31 07:50:59;;;;;;;7.32;5.90;;;21.50;99.90;;;;;;5054330;28;20226;-77
2022/07/31 07:53:31;;;;;;;6.45;5.00;;;21.60;99.90;;;;;;5051769;28;20237;-77
2022/07/31 07:56:18;;;;;;;5.65;5.05;;;21.70;99.90;;;;;;5054592;28;20213;-77
2022/07/31 07:59:12;;;;;;;5.38;4.50;;;21.40;99.90;;;;;;5048736;28;20602;-79
2022/07/31 08:02:19;;;;;;;6.15;4.75;;;21.40;99.90;;;;;;5023654;28;20211;-77
2022/07/31 08:04:48;;;;;;;7.90;4.88;;;21.50;99.90;;;;;;5011958;28;20215;-77
2022/07/31 08:07:17;;;;;;;6.05;4.40;;;21.60;99.90;;;;;;5028938;28;20200;-77
2022/07/31 08:09:45;;;;;;;4.53;4.13;;;21.70;99.90;;;;;;5062765;28;20555;-77
2022/07/31 08:12:31;;;;;;;8.10;4.75;;;21.60;99.90;;;;;;5072054;28;20213;-77
2022/07/31 08:15:19;;;;;;;6.05;4.68;;;21.60;99.90;;;;;;5063294;28;20210;-77
2022/07/31 08:18:03;;;;;;;4.07;3.60;;;21.60;99.90;;;;;;5057909;28;20202;-77
2022/07/31 08:20:31;;;;;;;4.82;3.80;;;21.80;99.90;;;;;;5067628;28;20228;-77
2022/07/31 08:22:58;;;;;;;5.60;3.95;;;21.80;99.90;;;;;;5067772;28;20209;-77
2022/07/31 08:25:26;;;;;;;3.83;3.53;;;21.80;99.90;;;;;;5068437;28;20209;-77
2022/07/31 08:27:53;;;;;;;4.35;3.55;;;21.70;99.90;;;;;;5059471;28;20202;-78
2022/07/31 08:30:21;;;;;;;4.45;3.50;;;21.90;99.90;;;;;;5054513;28;20214;-78
2022/07/31 08:32:49;;;;;;;3.75;2.92;;;22.00;99.90;;;;;;5057171;28;20924;-77
2022/07/31 08:35:21;;;;;;;3.75;2.55;;;21.80;99.90;;;;;;5048689;28;20202;-77
2022/07/31 08:37:49;;;;;;;4.03;2.50;;;21.70;99.90;;;;;;5063248;28;20203;-77
2022/07/31 08:40:18;;;;;;;3.38;2.20;;;21.60;99.90;;;;;;5052618;28;20218;-77
2022/07/31 08:42:46;;;;;;;3.92;2.65;;;21.60;99.90;;;;;;5044379;28;20264;-77
2022/07/31 08:45:14;;;;;;;2.42;2.20;;;21.40;99.90;;;;;;5048851;28;20601;-77
2022/07/31 08:47:48;;;;;;;3.38;2.58;;;21.70;99.90;;;;;;5056857;28;20202;-77
2022/07/31 08:50:25;;;;;;;2.95;1.83;;;21.70;99.90;;;;;;5055394;28;20233;-77
2022/07/31 08:52:54;;;;;;;2.53;1.95;;;21.70;99.90;;;;;;5049369;28;20198;-77
2022/07/31 08:55:40;;;;;;;3.53;2.22;;;21.90;99.90;;;;;;5058694;28;20212;-77
2022/07/31 08:58:07;;;;;;;2.35;2.15;;;21.70;99.90;;;;;;5055881;28;20213;-77
2022/07/31 09:00:35;;;;;;;2.40;2.10;;;21.70;99.90;;;;;;5065500;28;20232;-77
2022/07/31 09:03:04;;;;;;;2.08;1.88;;;21.60;99.90;;;;;;5060307;28;20206;-77
2022/07/31 09:05:37;;;;;;;5.50;1.95;;;21.50;99.90;;;;;;5061885;28;20228;-77
2022/07/31 09:08:05;;;;;;;2.17;1.98;;;21.50;99.90;;;;;;5069100;28;20581;-77
2022/07/31 09:10:33;;;;;;;2.20;1.50;;;21.40;99.90;;;;;;5065720;28;20210;-77
2022/07/31 09:13:12;;;;;;;2.20;2.00;;;21.40;99.90;;;;;;5055894;28;20198;-77
2022/07/31 09:15:40;;;;;;;2.30;2.10;;;21.40;99.90;;;;;;5056492;28;20279;-77
2022/07/31 09:18:17;;;;;;;2.58;2.38;;;21.30;99.90;;;;;;5053709;28;20205;-77
2022/07/31 09:20:56;;;;;;;4.00;2.50;;;21.30;99.90;;;;;;5067670;28;20217;-77
2022/07/31 09:23:24;;;;;;;2.88;2.25;;;21.30;99.90;;;;;;5062914;28;20197;-77
2022/07/31 09:25:52;;;;;;;2.45;2.17;;;21.30;99.90;;;;;;5067551;28;20206;-77
2022/07/31 09:28:20;;;;;;;2.83;2.30;;;21.40;99.90;;;;;;5052187;28;20198;-77
2022/07/31 09:30:54;;;;;;;2.80;2.40;;;21.30;99.90;;;;;;5053048;28;20217;-77
2022/07/31 09:33:35;;;;;;;2.50;2.30;;;21.50;99.90;;;;;;5057397;28;20644;-77
2022/07/31 09:36:24;;;;;;;2.20;2.00;;;21.60;99.90;;;;;;5062344;28;20197;-77
2022/07/31 09:38:58;;;;;;;2.83;2.00;;;21.60;99.90;;;;;;5059520;28;20201;-77
2022/07/31 09:41:31;;;;;;;2.42;2.22;;;21.70;99.90;;;;;;5061491;28;20225;-77
2022/07/31 09:44:10;;;;;;;2.88;2.55;;;21.70;99.90;;;;;;5066024;28;20296;-77
2022/07/31 09:46:42;;;;;;;2.40;2.20;;;21.80;99.90;;;;;;5058063;28;20481;-77
2022/07/31 09:49:10;;;;;;;2.33;2.03;;;21.70;99.90;;;;;;5055482;28;20217;-77
2022/07/31 09:51:41;;;;;;;2.65;2.13;;;21.50;99.90;;;;;;5059626;28;20220;-77
2022/07/31 09:54:20;;;;;;;2.50;1.85;;;21.50;99.90;;;;;;5060676;28;20213;-77
2022/07/31 09:57:11;;;;;;;2.20;2.00;;;21.70;99.90;;;;;;5062279;28;20206;-77
2022/07/31 09:59:41;;;;;;;2.97;1.95;;;21.80;99.90;;;;;;5058314;28;20548;-77
2022/07/31 10:02:12;;;;;;;3.42;2.35;;;21.80;99.90;;;;;;5059971;28;20229;-77
2022/07/31 10:04:41;;;;;;;2.50;2.30;;;22.00;99.90;;;;;;5063489;28;20675;-77
2022/07/31 10:07:16;;;;;;;3.10;2.00;;;22.10;99.90;;;;;;5060442;28;20563;-77
2022/07/31 10:09:46;;;;;;;2.67;2.08;;;22.00;99.90;;;;;;5063889;28;20233;-76
2022/07/31 10:12:42;;;;;;;2.38;2.17;;;22.00;99.90;;;;;;5065995;28;20206;-77
2022/07/31 10:15:12;;;;;;;2.42;1.90;;;22.10;99.90;;;;;;5057658;28;20220;-77
2022/07/31 10:17:46;;;;;;;2.83;2.63;;;22.20;99.90;;;;;;5067826;28;20191;-77
2022/07/31 10:20:35;;;;;;;2.42;2.22;;;22.20;99.90;;;;;;5068219;28;20218;-77
2022/07/31 10:23:15;;;;;;;2.63;1.90;;;22.20;99.90;;;;;;5073075;28;20230;-77
2022/07/31 10:25:47;;;;;;;3.05;2.03;;;22.30;99.90;;;;;;5064491;28;20204;-77
2022/07/31 10:28:16;;;;;;;3.30;2.00;;;22.20;99.90;;;;;;5069732;28;20201;-77
2022/07/31 10:30:46;;;;;;;2.72;1.88;;;22.30;99.90;;;;;;5065365;28;20225;-77
2022/07/31 10:33:13;;;;;;;2.17;1.90;;;22.50;99.90;;;;;;5070408;28;20213;-79
2022/07/31 10:35:46;;;;;;;2.63;1.70;;;22.40;99.90;;;;;;5077448;28;20202;-77
2022/07/31 10:39:01;;;;;;;2.55;2.10;;;22.60;99.90;;;;;;5055882;28;20195;-77
2022/07/31 10:42:03;;;;;;;2.47;2.28;;;22.70;99.90;;;;;;5034267;28;20226;-77
2022/07/31 10:44:34;;;;;;;3.30;2.03;;;23.00;99.90;;;;;;5046799;28;20198;-76
2022/07/31 10:47:26;;;;;;;3.08;2.10;;;22.70;99.90;;;;;;5057527;28;20221;-77
2022/07/31 10:50:20;;;;;;;4.22;2.13;;;22.90;99.90;;;;;;5064457;28;20233;-77
2022/07/31 10:53:17;;;;;;;3.47;2.05;;;23.10;99.90;;;;;;5065820;28;20559;-76
2022/07/31 10:56:09;;;;;;;2.80;2.38;;;23.00;99.90;;;;;;5068604;28;20235;-76
2022/07/31 10:59:02;;;;;;;3.10;2.20;;;23.00;99.90;;;;;;5063575;28;20559;-77
2022/07/31 11:02:04;;;;;;;3.00;2.30;;;23.00;99.90;;;;;;5026114;28;20211;-77
2022/07/31 11:04:44;;;;;;;2.47;2.05;;;22.80;99.90;;;;;;5061250;28;20209;-78
2022/07/31 11:07:19;;;;;;;2.53;2.33;;;23.00;99.90;;;;;;5073279;28;20217;-77
2022/07/31 11:10:13;;;;;;;2.78;2.00;;;23.00;99.90;;;;;;5079303;28;20186;-77
2022/07/31 11:13:16;;;;;;;2.38;2.17;;;23.00;99.90;;;;;;5055203;28;20202;-76
2022/07/31 11:16:13;;;;;;;2.70;2.47;;;23.00;99.90;;;;;;5055465;28;20209;-78
2022/07/31 11:19:00;;;;;;;6.10;2.70;;;23.10;99.90;;;;;;5072358;28;20208;-78
2022/07/31 11:21:42;;;;;;;2.90;2.70;;;23.10;99.90;;;;;;5071105;28;20218;-77
2022/07/31 11:24:14;;;;;;;4.00;2.30;;;22.90;99.90;;;;;;5073559;28;20198;-78
2022/07/31 11:26:47;;;;;;;3.28;2.97;;;22.80;99.90;;;;;;5070752;28;20213;-77
2022/07/31 11:29:26;;;;;;;2.83;2.55;;;22.60;99.90;;;;;;5068617;28;20198;-78
2022/07/31 11:31:54;;;;;;;2.63;2.42;;;22.70;99.90;;;;;;5071057;28;20220;-78
2022/07/31 11:34:21;;;;;;;2.85;2.58;;;22.80;99.90;;;;;;5081292;28;20201;-77
2022/07/31 11:36:49;;;;;;;3.97;2.70;;;22.80;99.90;;;;;;5071610;28;20189;-77
2022/07/31 11:39:17;;;;;;;3.60;2.58;;;22.80;99.90;;;;;;5066300;28;20205;-79
2022/07/31 11:41:46;;;;;;;2.90;2.60;;;22.90;99.90;;;;;;5061594;28;20218;-77
2022/07/31 11:44:30;;;;;;;2.95;2.75;;;23.00;99.90;;;;;;5065209;28;20210;-75
2022/07/31 11:46:57;;;;;;;3.70;2.67;;;23.20;99.90;;;;;;5063183;28;20213;-79
2022/07/31 11:49:25;;;;;;;5.25;2.90;;;23.00;99.90;;;;;;5072990;28;20197;-78
2022/07/31 11:52:00;;;;;;;3.50;3.03;;;23.20;99.90;;;;;;5067146;28;20695;-78
2022/07/31 11:54:28;;;;;;;3.25;2.95;;;23.20;99.90;;;;;;5070085;28;20197;-77
2022/07/31 11:56:56;;;;;;;2.92;2.72;;;23.20;99.90;;;;;;5067518;28;20198;-77
2022/07/31 11:59:35;;;;;;;3.17;2.53;;;23.20;99.90;;;;;;5067824;28;20206;-77
2022/07/31 12:02:04;;;;;;;4.15;3.05;;;23.20;99.90;;;;;;5060704;28;20222;-77
2022/07/31 12:04:32;;;;;;;2.97;2.78;;;23.30;99.90;;;;;;5070641;28;20212;-77
2022/07/31 12:07:00;;;;;;;3.40;3.03;;;23.20;99.90;;;;;;5066576;28;20205;-78
2022/07/31 12:09:28;;;;;;;3.80;3.38;;;23.30;99.90;;;;;;5071500;28;20205;-77
2022/07/31 12:11:57;;;;;;;5.45;3.28;;;23.20;99.90;;;;;;5062296;28;20689;-77
2022/07/31 12:14:31;;;;;;;3.47;3.28;;;23.20;99.90;;;;;;5070480;28;20201;-77
2022/07/31 12:17:06;;;;;;;4.07;3.67;;;23.30;99.90;;;;;;5073094;28;20668;-77
2022/07/31 12:19:37;;;;;;;6.10;3.20;;;23.00;99.90;;;;;;5072347;28;20200;-77
2022/07/31 12:22:13;;;;;;;5.00;3.67;;;22.90;99.90;;;;;;5069057;28;20710;-77
2022/07/31 12:24:42;;;;;;;4.25;3.85;;;22.80;99.90;;;;;;5067223;28;20538;-77
2022/07/31 12:27:14;;;;;;;4.70;3.72;;;22.80;99.90;;;;;;5058252;28;20214;-77
2022/07/31 12:29:44;;;;;;;4.28;3.63;;;23.00;99.90;;;;;;5073618;28;20198;-77
2022/07/31 12:32:11;;;;;;;4.32;3.50;;;23.00;99.90;;;;;;5069984;28;20228;-78
2022/07/31 12:34:40;;;;;;;6.28;3.78;;;23.20;99.90;;;;;;5061833;28;20192;-78
2022/07/31 12:37:09;;;;;;;3.60;3.30;;;23.30;99.90;;;;;;5067637;28;20201;-78
2022/07/31 12:39:38;;;;;;;4.95;3.38;;;23.60;99.90;;;;;;5072126;28;20201;-78
2022/07/31 12:42:07;;;;;;;5.15;3.30;;;23.80;99.90;;;;;;5070422;28;20694;-78
2022/07/31 12:44:35;;;;;;;4.35;3.60;;;24.00;99.90;;;;;;5055217;28;20652;-78
2022/07/31 12:47:03;;;;;;;3.63;3.33;;;23.80;99.90;;;;;;5060965;28;20214;-77
2022/07/31 12:49:46;;;;;;;4.03;2.92;;;24.00;99.90;;;;;;5066143;28;20635;-78
2022/07/31 12:52:14;;;;;;;3.53;2.75;;;24.10;99.90;;;;;;5064056;28;20687;-78
2022/07/31 12:54:42;;;;;;;3.88;3.10;;;24.30;99.90;;;;;;5074166;28;20717;-78
2022/07/31 12:57:09;;;;;;;4.57;3.30;;;24.20;99.90;;;;;;5062639;28;20205;-78
2022/07/31 12:59:37;;;;;;;4.55;2.60;;;24.30;99.90;;;;;;5072237;28;20194;-78
2022/07/31 13:02:06;;;;;;;4.38;3.20;;;24.50;99.90;;;;;;5063270;28;20225;-78
2022/07/31 13:04:34;;;;;;;5.20;3.53;;;24.60;99.90;;;;;;5072838;28;20210;-79
2022/07/31 13:07:01;;;;;;;3.97;3.58;;;24.40;99.90;;;;;;5061594;28;20194;-78
2022/07/31 13:09:29;;;;;;;3.53;3.05;;;24.20;99.90;;;;;;5069089;28;20198;-79
2022/07/31 13:11:57;;;;;;;3.53;3.10;;;24.10;99.90;;;;;;5065394;28;20222;-79
2022/07/31 13:14:24;;;;;;;3.60;3.00;;;24.10;99.90;;;;;;5060149;28;20198;-79
2022/07/31 13:16:53;;;;;;;3.53;3.22;;;24.10;99.90;;;;;;5070953;28;20197;-79